Cold Spring, Massachusetts
Current Conditions -  °F | °C
As of 12:54 PM on Saturday 20 Dec 2014 (Local Time) from KPSF Reporting Station
Overcast Overcast  
Wind Chill: 19°   Ceiling: 2400
Heat Index: 26°   Visibility: 10mi
Dew Point: 19°   Wind: 6mph
Humidity: 75%   Direction: 250°WSW
Pressure: 30.2"   Gusts: NA
Location:  42.2038°N, 73.0917°W
Report Text: KPSF 201754Z AUTO 25005KT 10SM OVC024 M03/M07 A3020 RMK AO2 SLP243 T10331072 11033 21078 56010
Loading
Personal Weather Stations






























Interactive Weather Map New forecast layout! Learn more

10-Day Weather Forecast

Advertisements
Track Severe Weather on mobile